createdAt,value
2019-03-19T00:00:15.436Z,1020.69
2019-03-19T00:01:15.430Z,1020.63
2019-03-19T00:02:23.110Z,1020.65
2019-03-19T00:03:15.397Z,1020.62
2019-03-19T00:04:15.407Z,1020.70
2019-03-19T00:05:15.374Z,1020.65
2019-03-19T00:06:15.363Z,1020.62
2019-03-19T00:07:15.354Z,1020.63
2019-03-19T00:08:15.353Z,1020.70
2019-03-19T00:09:15.355Z,1020.62
2019-03-19T00:10:15.320Z,1020.62
2019-03-19T00:11:15.312Z,1020.63
2019-03-19T00:12:15.302Z,1020.66
2019-03-19T00:13:15.293Z,1020.65
2019-03-19T00:14:15.295Z,1020.62
2019-03-19T00:15:15.267Z,1020.63
2019-03-19T00:16:15.265Z,1020.60
2019-03-19T00:17:15.250Z,1020.64
2019-03-19T00:18:15.233Z,1020.63
2019-03-19T00:19:15.248Z,1020.65
2019-03-19T00:20:15.218Z,1020.79
2019-03-19T00:21:15.201Z,1020.72
2019-03-19T00:22:15.191Z,1020.79
2019-03-19T00:23:15.181Z,1020.72
2019-03-19T00:24:15.190Z,1020.69
2019-03-19T00:25:15.174Z,1020.68
2019-03-19T00:26:15.159Z,1020.69
2019-03-19T00:27:15.138Z,1020.77
2019-03-19T00:28:15.128Z,1020.77
2019-03-19T00:29:15.155Z,1020.75
2019-03-19T00:30:15.104Z,1020.70
2019-03-19T00:31:15.097Z,1020.71
2019-03-19T00:32:15.086Z,1020.74
2019-03-19T00:33:15.076Z,1020.70
2019-03-19T00:34:15.096Z,1020.68
2019-03-19T00:35:15.053Z,1020.68
2019-03-19T00:36:17.368Z,1020.65
2019-03-19T00:37:15.031Z,1020.67
2019-03-19T00:38:15.018Z,1020.70
2019-03-19T00:39:15.026Z,1020.68
2019-03-19T00:40:14.995Z,1020.68
2019-03-19T00:41:14.988Z,1020.68
2019-03-19T00:42:14.976Z,1020.72
2019-03-19T00:43:14.975Z,1020.70
2019-03-19T00:44:14.978Z,1020.71
2019-03-19T00:45:14.949Z,1020.75
2019-03-19T00:46:14.932Z,1020.77
2019-03-19T00:47:14.922Z,1020.79
2019-03-19T00:48:14.917Z,1020.87
2019-03-19T00:49:14.899Z,1020.79
2019-03-19T00:50:14.970Z,1020.82
2019-03-19T00:51:14.879Z,1020.76
2019-03-19T00:52:14.880Z,1020.75
2019-03-19T00:53:14.856Z,1020.78
2019-03-19T00:54:14.847Z,1020.76
2019-03-19T00:55:14.842Z,1020.76
2019-03-19T00:56:14.853Z,1020.81
2019-03-19T00:57:14.815Z,1020.77
2019-03-19T00:58:14.806Z,1020.83
2019-03-19T00:59:14.794Z,1020.88
2019-03-19T01:00:14.783Z,1020.89
2019-03-19T01:01:14.813Z,1020.91
2019-03-19T01:02:14.765Z,1020.90
2019-03-19T01:03:14.760Z,1020.85
2019-03-19T01:04:14.743Z,1020.85
2019-03-19T01:05:14.732Z,1020.85
2019-03-19T01:06:14.739Z,1020.82
2019-03-19T01:07:14.717Z,1020.80
2019-03-19T01:08:14.702Z,1020.87
2019-03-19T01:09:14.693Z,1020.86
2019-03-19T01:10:17.145Z,1020.91
2019-03-19T01:11:14.695Z,1020.92
2019-03-19T01:12:14.658Z,1020.98
2019-03-19T01:13:14.653Z,1021.04
2019-03-19T01:14:14.641Z,1020.97
2019-03-19T01:15:14.629Z,1021.00
2019-03-19T01:16:14.648Z,1021.02
2019-03-19T01:17:14.608Z,1021.03
2019-03-19T01:18:14.602Z,1021.03
2019-03-19T01:19:14.600Z,1021.07
2019-03-19T01:20:14.578Z,1021.12
2019-03-19T01:21:14.566Z,1021.08
2019-03-19T01:22:14.590Z,1021.14
2019-03-19T01:23:14.547Z,1021.17
2019-03-19T01:24:14.536Z,1021.16
2019-03-19T01:25:14.527Z,1021.16
2019-03-19T01:26:14.516Z,1021.16
2019-03-19T01:27:14.508Z,1021.19
2019-03-19T01:28:14.525Z,1021.17
2019-03-19T01:29:14.488Z,1021.17
2019-03-19T01:30:14.477Z,1021.15
2019-03-19T01:31:14.467Z,1021.19
2019-03-19T01:32:14.455Z,1021.15
2019-03-19T01:33:14.463Z,1021.11
2019-03-19T01:34:14.434Z,1021.10
2019-03-19T01:35:14.430Z,1021.06
2019-03-19T01:36:14.417Z,1021.05
2019-03-19T01:37:14.417Z,1021.04
2019-03-19T01:38:14.429Z,1020.91
2019-03-19T01:39:14.391Z,1021.06
2019-03-19T01:40:14.376Z,1020.99
2019-03-19T01:41:14.362Z,1021.02
2019-03-19T01:42:14.351Z,1021.01
2019-03-19T01:43:14.343Z,1021.05
2019-03-19T01:44:14.356Z,1021.03
2019-03-19T01:45:14.322Z,1021.01
2019-03-19T01:46:14.327Z,1021.07
2019-03-19T01:47:14.301Z,1021.04
2019-03-19T01:48:14.291Z,1021.04
2019-03-19T01:49:14.308Z,1021.08
2019-03-19T01:50:14.302Z,1021.13
2019-03-19T01:51:14.259Z,1021.05
2019-03-19T01:52:14.252Z,1021.10
2019-03-19T01:53:14.243Z,1021.09
2019-03-19T01:54:14.256Z,1021.17
2019-03-19T01:55:14.229Z,1021.22
2019-03-19T01:56:14.213Z,1021.12
2019-03-19T01:57:14.214Z,1021.14
2019-03-19T01:58:14.187Z,1021.17
2019-03-19T01:59:14.179Z,1021.14
2019-03-19T02:00:14.186Z,1021.16
2019-03-19T02:01:14.157Z,1021.16
2019-03-19T02:02:14.150Z,1021.12
2019-03-19T02:03:14.144Z,1021.16
2019-03-19T02:04:14.149Z,1021.17
2019-03-19T02:05:14.135Z,1021.19
2019-03-19T02:06:14.105Z,1021.20
2019-03-19T02:07:14.105Z,1021.20
2019-03-19T02:08:14.085Z,1021.16
2019-03-19T02:09:14.074Z,1021.20
2019-03-19T02:10:14.082Z,1021.28
2019-03-19T02:11:14.054Z,1021.29
2019-03-19T02:12:14.043Z,1021.24
2019-03-19T02:13:14.041Z,1021.30
2019-03-19T02:14:14.027Z,1021.31
2019-03-19T02:15:14.031Z,1021.32
2019-03-19T02:16:14.003Z,1021.34
2019-03-19T02:17:13.994Z,1021.29
2019-03-19T02:18:13.986Z,1021.31
2019-03-19T02:19:13.972Z,1021.30
2019-03-19T02:20:14.063Z,1021.33
2019-03-19T02:21:13.953Z,1021.38
2019-03-19T02:22:13.958Z,1021.33
2019-03-19T02:23:13.939Z,1021.39
2019-03-19T02:24:13.921Z,1021.42
2019-03-19T02:25:13.916Z,1021.46
2019-03-19T02:26:16.804Z,1021.46
2019-03-19T02:27:13.889Z,1021.42
2019-03-19T02:28:13.880Z,1021.44
2019-03-19T02:29:13.869Z,1021.48
2019-03-19T02:30:13.862Z,1021.45
2019-03-19T02:31:13.907Z,1021.36
2019-03-19T02:32:13.840Z,1021.32
2019-03-19T02:33:13.840Z,1021.35
2019-03-19T02:34:13.826Z,1021.33
2019-03-19T02:35:13.813Z,1021.35
2019-03-19T02:36:13.818Z,1021.38
2019-03-19T02:37:13.789Z,1021.41
2019-03-19T02:38:13.781Z,1021.45
2019-03-19T02:39:13.767Z,1021.41
2019-03-19T02:40:13.780Z,1021.40
2019-03-19T02:41:13.778Z,1021.41
2019-03-19T02:42:13.739Z,1021.44
2019-03-19T02:43:13.734Z,1021.42
2019-03-19T02:44:13.719Z,1021.39
2019-03-19T02:45:13.719Z,1021.41
2019-03-19T02:46:13.801Z,1021.42
2019-03-19T02:47:13.686Z,1021.42
2019-03-19T02:48:13.678Z,1021.42
2019-03-19T02:49:13.677Z,1021.47
2019-03-19T02:50:13.669Z,1021.51
2019-03-19T02:51:13.655Z,1021.54
2019-03-19T02:52:13.657Z,1021.49
2019-03-19T02:53:13.626Z,1021.52
2019-03-19T02:54:13.618Z,1021.47
2019-03-19T02:55:13.606Z,1021.48
2019-03-19T02:56:13.599Z,1021.55
2019-03-19T02:57:13.607Z,1021.50
2019-03-19T02:58:13.584Z,1021.54
2019-03-19T02:59:13.572Z,1021.58
2019-03-19T03:00:13.553Z,1021.60
2019-03-19T03:01:13.543Z,1021.62
2019-03-19T03:02:13.562Z,1021.63
2019-03-19T03:03:13.533Z,1021.65
2019-03-19T03:04:13.512Z,1021.63
2019-03-19T03:05:13.507Z,1021.63
2019-03-19T03:06:13.494Z,1021.66
2019-03-19T03:07:13.539Z,1021.68
2019-03-19T03:08:13.474Z,1021.78
2019-03-19T03:09:13.463Z,1021.85
2019-03-19T03:10:13.455Z,1021.85
2019-03-19T03:11:13.445Z,1021.91
2019-03-19T03:12:13.432Z,1021.93
2019-03-19T03:13:13.445Z,1021.98
2019-03-19T03:14:13.412Z,1022.02
2019-03-19T03:15:13.402Z,1022.03
2019-03-19T03:16:13.400Z,1022.03
2019-03-19T03:17:13.380Z,1022.02
2019-03-19T03:18:13.399Z,1022.00
2019-03-19T03:19:13.360Z,1021.97
2019-03-19T03:20:13.365Z,1021.91
2019-03-19T03:21:13.367Z,1021.97
2019-03-19T03:22:13.328Z,1021.99
2019-03-19T03:23:13.321Z,1022.02
2019-03-19T03:24:13.330Z,1021.97
2019-03-19T03:25:13.320Z,1021.98
2019-03-19T03:26:13.285Z,1021.99
2019-03-19T03:27:13.280Z,1022.05
2019-03-19T03:28:13.268Z,1022.05
2019-03-19T03:29:13.275Z,1022.05
2019-03-19T03:30:13.309Z,1022.07
2019-03-19T03:31:13.242Z,1022.07
2019-03-19T03:32:13.250Z,1022.03
2019-03-19T03:33:13.215Z,1022.01
2019-03-19T03:34:13.373Z,1022.04
2019-03-19T03:35:13.217Z,1022.02
2019-03-19T03:36:13.185Z,1022.02
2019-03-19T03:37:13.272Z,1022.01
2019-03-19T03:38:13.266Z,1021.96
2019-03-19T03:39:13.195Z,1021.95
2019-03-19T03:40:13.143Z,1021.96
2019-03-19T03:41:13.146Z,1021.95
2019-03-19T03:42:13.122Z,1021.92
2019-03-19T03:43:13.114Z,1021.96
2019-03-19T03:44:13.129Z,1022.05
2019-03-19T03:45:13.128Z,1022.06
2019-03-19T03:46:13.084Z,1022.03
2019-03-19T03:47:13.074Z,1022.03
2019-03-19T03:48:13.070Z,1022.05
2019-03-19T03:49:13.151Z,1022.02
2019-03-19T03:50:13.054Z,1022.04
2019-03-19T03:51:13.040Z,1022.08
2019-03-19T03:52:13.030Z,1022.08
2019-03-19T03:53:13.070Z,1022.09
2019-03-19T03:54:13.031Z,1022.15
2019-03-19T03:55:13.093Z,1022.13
2019-03-19T03:56:12.985Z,1022.19
2019-03-19T03:57:12.971Z,1022.18
2019-03-19T03:58:12.973Z,1022.18
2019-03-19T03:59:12.968Z,1022.29
2019-03-19T04:00:12.963Z,1022.21
2019-03-19T04:01:13.003Z,1022.24
2019-03-19T04:02:12.944Z,1022.25
2019-03-19T04:03:12.939Z,1022.27
2019-03-19T04:04:12.928Z,1022.33
2019-03-19T04:05:12.893Z,1022.32
2019-03-19T04:06:12.898Z,1022.35
2019-03-19T04:07:12.890Z,1022.35
2019-03-19T04:08:12.863Z,1022.34
2019-03-19T04:09:12.860Z,1022.28
2019-03-19T04:10:12.854Z,1022.33
2019-03-19T04:11:12.886Z,1022.32
2019-03-19T04:12:12.825Z,1022.30
2019-03-19T04:13:12.853Z,1022.28
2019-03-19T04:14:12.805Z,1022.35
2019-03-19T04:15:12.787Z,1022.30
2019-03-19T04:16:12.837Z,1022.33
2019-03-19T04:17:12.802Z,1022.34
2019-03-19T04:18:12.787Z,1022.36
2019-03-19T04:19:12.746Z,1022.39
2019-03-19T04:20:12.758Z,1022.31
2019-03-19T04:21:12.789Z,1022.34
2019-03-19T04:22:15.809Z,1022.39
2019-03-19T04:23:12.701Z,1022.35
2019-03-19T04:24:12.694Z,1022.35
2019-03-19T04:25:12.685Z,1022.37
2019-03-19T04:26:12.681Z,1022.41
2019-03-19T04:27:16.278Z,1022.42
2019-03-19T04:28:12.678Z,1022.37
2019-03-19T04:29:12.640Z,1022.41
2019-03-19T04:30:12.670Z,1022.46
2019-03-19T04:31:12.621Z,1022.41
2019-03-19T04:32:12.606Z,1022.38
2019-03-19T04:33:12.616Z,1022.43
2019-03-19T04:34:12.597Z,1022.43
2019-03-19T04:35:12.575Z,1022.37
2019-03-19T04:36:12.572Z,1022.40
2019-03-19T04:37:12.556Z,1022.40
2019-03-19T04:38:12.570Z,1022.38
2019-03-19T04:39:12.536Z,1022.34
2019-03-19T04:40:12.523Z,1022.38
2019-03-19T04:41:12.514Z,1022.42
2019-03-19T04:42:12.503Z,1022.37
2019-03-19T04:43:12.509Z,1022.38
2019-03-19T04:44:12.509Z,1022.41
2019-03-19T04:45:12.472Z,1022.44
2019-03-19T04:46:12.464Z,1022.46
2019-03-19T04:47:12.449Z,1022.48
2019-03-19T04:48:12.440Z,1022.54
2019-03-19T04:49:12.449Z,1022.55
2019-03-19T04:50:12.419Z,1022.55
2019-03-19T04:51:12.407Z,1022.54
2019-03-19T04:52:12.412Z,1022.56
2019-03-19T04:53:12.389Z,1022.57
2019-03-19T04:54:12.400Z,1022.59
2019-03-19T04:55:12.375Z,1022.61
2019-03-19T04:56:12.361Z,1022.66
2019-03-19T04:57:12.346Z,1022.65
2019-03-19T04:58:12.343Z,1022.66
2019-03-19T04:59:12.426Z,1022.64
2019-03-19T05:00:12.323Z,1022.66
2019-03-19T05:01:12.313Z,1022.67
2019-03-19T05:02:12.294Z,1022.71
2019-03-19T05:03:12.282Z,1022.68
2019-03-19T05:04:12.273Z,1022.69
2019-03-19T05:05:12.285Z,1022.66
2019-03-19T05:06:12.255Z,1022.65
2019-03-19T05:07:12.242Z,1022.64
2019-03-19T05:08:12.230Z,1022.60
2019-03-19T05:09:12.223Z,1022.66
2019-03-19T05:10:12.248Z,1022.65
2019-03-19T05:11:12.199Z,1022.70
2019-03-19T05:12:12.193Z,1022.69
2019-03-19T05:13:12.181Z,1022.65
2019-03-19T05:14:12.167Z,1022.65
2019-03-19T05:15:12.165Z,1022.62
2019-03-19T05:16:12.166Z,1022.63
2019-03-19T05:17:12.139Z,1022.67
2019-03-19T05:18:12.127Z,1022.64
2019-03-19T05:19:12.128Z,1022.71
2019-03-19T05:20:12.147Z,1022.71
2019-03-19T05:21:12.118Z,1022.73
2019-03-19T05:22:12.089Z,1022.72
2019-03-19T05:23:12.079Z,1022.70
2019-03-19T05:24:12.064Z,1022.73
2019-03-19T05:25:12.055Z,1022.78
2019-03-19T05:26:12.095Z,1022.78
2019-03-19T05:27:13.909Z,1022.77
2019-03-19T05:28:12.033Z,1022.78
2019-03-19T05:29:12.014Z,1022.85
2019-03-19T05:30:12.010Z,1022.82
2019-03-19T05:31:12.013Z,1022.84
2019-03-19T05:32:11.997Z,1022.90
2019-03-19T05:33:11.972Z,1022.87
2019-03-19T05:34:11.973Z,1022.91
2019-03-19T05:35:11.950Z,1022.89
2019-03-19T05:36:11.940Z,1022.93
2019-03-19T05:37:11.959Z,1022.89
2019-03-19T05:38:11.930Z,1022.88
2019-03-19T05:39:11.924Z,1022.87
2019-03-19T05:40:11.895Z,1022.89
2019-03-19T05:41:11.890Z,1022.89
2019-03-19T05:42:11.897Z,1022.87
2019-03-19T05:43:11.876Z,1022.86
2019-03-19T05:44:11.866Z,1022.86
2019-03-19T05:45:11.848Z,1022.81
2019-03-19T05:46:11.832Z,1022.89
2019-03-19T05:47:11.844Z,1022.85
2019-03-19T05:48:11.826Z,1022.83
2019-03-19T05:49:11.802Z,1022.85
2019-03-19T05:50:11.804Z,1022.83
2019-03-19T05:51:11.782Z,1022.87
2019-03-19T05:52:11.792Z,1022.91
2019-03-19T05:53:11.774Z,1022.91
2019-03-19T05:54:11.755Z,1022.90
2019-03-19T05:55:11.742Z,1022.89
2019-03-19T05:56:11.733Z,1022.95
2019-03-19T05:57:11.775Z,1022.96
2019-03-19T05:58:11.714Z,1023.07
2019-03-19T05:59:11.697Z,1023.04
2019-03-19T06:00:11.693Z,1023.05
2019-03-19T06:01:11.678Z,1023.04
2019-03-19T06:02:11.676Z,1023.09
2019-03-19T06:03:11.676Z,1023.13
2019-03-19T06:04:19.196Z,1023.12
2019-03-19T06:05:11.643Z,1023.15
2019-03-19T06:06:11.638Z,1023.15
2019-03-19T06:07:11.617Z,1023.12
2019-03-19T06:08:11.631Z,1023.17
2019-03-19T06:09:11.625Z,1023.17
2019-03-19T06:10:11.585Z,1023.13
2019-03-19T06:11:11.574Z,1023.12
2019-03-19T06:12:11.566Z,1023.15
2019-03-19T06:13:11.586Z,1023.14
2019-03-19T06:14:11.546Z,1023.15
2019-03-19T06:15:11.546Z,1023.20
2019-03-19T06:16:11.523Z,1023.17
2019-03-19T06:17:11.565Z,1023.20
2019-03-19T06:18:11.508Z,1023.18
2019-03-19T06:19:11.512Z,1023.22
2019-03-19T06:20:11.483Z,1023.26
2019-03-19T06:21:11.471Z,1023.27
2019-03-19T06:22:11.482Z,1023.21
2019-03-19T06:23:11.452Z,1023.24
2019-03-19T06:24:11.464Z,1023.27
2019-03-19T06:25:11.479Z,1023.23
2019-03-19T06:26:11.445Z,1023.27
2019-03-19T06:27:11.414Z,1023.32
2019-03-19T06:28:11.401Z,1023.32
2019-03-19T06:29:11.487Z,1023.34
2019-03-19T06:30:11.379Z,1023.33
2019-03-19T06:31:11.392Z,1023.35
2019-03-19T06:32:11.355Z,1023.33
2019-03-19T06:33:11.346Z,1023.39
2019-03-19T06:34:11.334Z,1023.43
2019-03-19T06:35:11.355Z,1023.37
2019-03-19T06:36:11.317Z,1023.42
2019-03-19T06:37:11.305Z,1023.42
2019-03-19T06:38:11.294Z,1023.46
2019-03-19T06:39:11.283Z,1023.41
2019-03-19T06:40:11.345Z,1023.43
2019-03-19T06:41:11.269Z,1023.45
2019-03-19T06:42:11.255Z,1023.49
2019-03-19T06:43:11.241Z,1023.48
2019-03-19T06:44:11.240Z,1023.51
2019-03-19T06:45:11.219Z,1023.55
2019-03-19T06:46:11.229Z,1023.58
2019-03-19T06:47:11.200Z,1023.60
2019-03-19T06:48:11.191Z,1023.60
2019-03-19T06:49:11.189Z,1023.64
2019-03-19T06:50:11.217Z,1023.68
2019-03-19T06:51:11.158Z,1023.68
2019-03-19T06:52:11.153Z,1023.74
2019-03-19T06:53:11.154Z,1023.79
2019-03-19T06:54:11.127Z,1023.76
2019-03-19T06:55:11.118Z,1023.78
2019-03-19T06:56:11.128Z,1023.81
2019-03-19T06:57:11.096Z,1023.80
2019-03-19T06:58:11.482Z,1023.84
2019-03-19T06:59:11.079Z,1023.90
2019-03-19T07:00:11.068Z,1023.90
2019-03-19T07:01:11.052Z,1023.98
2019-03-19T07:02:11.082Z,1023.96
2019-03-19T07:03:11.082Z,1023.98
2019-03-19T07:04:11.025Z,1023.98
2019-03-19T07:05:11.013Z,1023.97
2019-03-19T07:06:11.000Z,1023.91
2019-03-19T07:07:11.017Z,1023.97
2019-03-19T07:08:10.980Z,1023.92
2019-03-19T07:09:10.972Z,1023.91
2019-03-19T07:10:10.964Z,1023.86
2019-03-19T07:11:10.968Z,1023.90
2019-03-19T07:12:10.968Z,1023.90
2019-03-19T07:13:10.931Z,1023.88
2019-03-19T07:14:10.920Z,1023.94
2019-03-19T07:15:10.914Z,1023.97
2019-03-19T07:16:10.908Z,1024.01
2019-03-19T07:17:10.887Z,1024.00
2019-03-19T07:18:11.818Z,1024.07
2019-03-19T07:19:10.866Z,1024.06
2019-03-19T07:20:10.871Z,1024.07
2019-03-19T07:21:10.847Z,1024.05
2019-03-19T07:22:10.841Z,1024.10
2019-03-19T07:23:10.853Z,1024.09
2019-03-19T07:24:10.815Z,1024.06
2019-03-19T07:25:10.813Z,1024.08
2019-03-19T07:26:10.795Z,1024.02
2019-03-19T07:27:10.784Z,1024.03
2019-03-19T07:28:21.419Z,1024.02
2019-03-19T07:29:11.794Z,1024.04
2019-03-19T07:30:10.754Z,1023.99
2019-03-19T07:31:10.750Z,1024.00
2019-03-19T07:32:10.773Z,1023.99
2019-03-19T07:33:10.721Z,1023.98
2019-03-19T07:34:10.742Z,1024.04
2019-03-19T07:35:10.705Z,1024.01
2019-03-19T07:36:10.692Z,1024.04
2019-03-19T07:37:10.684Z,1024.10
2019-03-19T07:38:10.681Z,1024.09
2019-03-19T07:39:10.681Z,1024.16
2019-03-19T07:40:10.652Z,1024.23
2019-03-19T07:41:10.640Z,1024.24
2019-03-19T07:42:10.633Z,1024.32
2019-03-19T07:43:10.635Z,1024.30
2019-03-19T07:44:10.629Z,1024.29
2019-03-19T07:45:10.615Z,1024.29
2019-03-19T07:46:10.594Z,1024.25
2019-03-19T07:47:10.595Z,1024.28
2019-03-19T07:48:10.570Z,1024.22
2019-03-19T07:49:10.587Z,1024.17
2019-03-19T07:50:10.550Z,1024.14
2019-03-19T07:51:10.545Z,1024.12
2019-03-19T07:52:10.537Z,1024.18
2019-03-19T07:53:10.519Z,1024.18
2019-03-19T07:54:10.509Z,1024.18
2019-03-19T07:55:10.522Z,1024.16
2019-03-19T07:56:10.495Z,1024.16
2019-03-19T07:57:10.477Z,1024.20
2019-03-19T07:58:10.466Z,1024.19
2019-03-19T07:59:10.455Z,1024.16
2019-03-19T08:00:10.445Z,1024.13
2019-03-19T08:01:10.464Z,1024.14
2019-03-19T08:02:10.429Z,1024.11
2019-03-19T08:03:16.019Z,1024.18
2019-03-19T08:04:11.403Z,1024.15
2019-03-19T08:05:10.407Z,1024.11
2019-03-19T08:06:10.403Z,1024.12
2019-03-19T08:07:10.375Z,1024.16
2019-03-19T08:08:10.362Z,1024.18
2019-03-19T08:09:10.353Z,1024.21
2019-03-19T08:10:10.367Z,1024.19
2019-03-19T08:11:10.356Z,1024.22
2019-03-19T08:12:10.322Z,1024.25
2019-03-19T08:13:10.329Z,1024.28
2019-03-19T08:14:10.313Z,1024.22
2019-03-19T08:15:10.295Z,1024.28
2019-03-19T08:16:10.287Z,1024.24
2019-03-19T08:17:10.290Z,1024.28
2019-03-19T08:18:10.261Z,1024.20
2019-03-19T08:19:10.270Z,1024.24
2019-03-19T08:20:10.243Z,1024.20
2019-03-19T08:21:10.231Z,1024.15
2019-03-19T08:22:10.243Z,1024.20
2019-03-19T08:23:10.225Z,1024.14
2019-03-19T08:24:10.200Z,1024.16
2019-03-19T08:25:10.190Z,1024.21
2019-03-19T08:26:10.182Z,1024.28
2019-03-19T08:27:10.193Z,1024.26
2019-03-19T08:28:10.174Z,1024.24
2019-03-19T08:29:10.152Z,1024.20
2019-03-19T08:30:10.141Z,1024.25
2019-03-19T08:31:10.130Z,1024.26
2019-03-19T08:32:10.160Z,1024.27
2019-03-19T08:33:10.107Z,1024.22
2019-03-19T08:34:10.115Z,1024.25
2019-03-19T08:35:10.088Z,1024.20
2019-03-19T08:36:10.081Z,1024.21
2019-03-19T08:37:10.096Z,1024.22
2019-03-19T08:38:10.076Z,1024.26
2019-03-19T08:39:10.047Z,1024.21
2019-03-19T08:40:10.035Z,1024.25
2019-03-19T08:41:10.039Z,1024.24
2019-03-19T08:42:10.015Z,1024.25
2019-03-19T08:43:10.022Z,1024.26
2019-03-19T08:44:09.990Z,1024.29
2019-03-19T08:45:09.984Z,1024.33
2019-03-19T08:46:09.985Z,1024.33
2019-03-19T08:47:09.982Z,1024.38
2019-03-19T08:48:09.973Z,1024.35
2019-03-19T08:49:09.940Z,1024.28
2019-03-19T08:50:09.948Z,1024.31
2019-03-19T08:51:09.943Z,1024.34
2019-03-19T08:52:09.908Z,1024.37
2019-03-19T08:53:09.897Z,1024.37
2019-03-19T08:54:09.990Z,1024.36
2019-03-19T08:55:09.894Z,1024.43
2019-03-19T08:56:09.865Z,1024.48
2019-03-19T08:57:09.859Z,1024.50
2019-03-19T08:58:09.845Z,1024.48
2019-03-19T08:59:09.850Z,1024.43
2019-03-19T09:00:09.831Z,1024.46
2019-03-19T09:01:09.810Z,1024.48
2019-03-19T09:02:09.801Z,1024.48
2019-03-19T09:03:09.788Z,1024.53
2019-03-19T09:04:09.798Z,1024.53
2019-03-19T09:05:09.766Z,1024.54
2019-03-19T09:06:09.755Z,1024.46
2019-03-19T09:07:09.742Z,1024.55
2019-03-19T09:08:09.740Z,1024.51
2019-03-19T09:09:09.752Z,1024.59
2019-03-19T09:10:09.731Z,1024.57
2019-03-19T09:11:09.708Z,1024.57
2019-03-19T09:12:09.686Z,1024.52
2019-03-19T09:13:09.678Z,1024.52
2019-03-19T09:14:09.669Z,1024.54
2019-03-19T09:15:09.676Z,1024.53
2019-03-19T09:16:09.645Z,1024.58
2019-03-19T09:17:09.642Z,1024.57
2019-03-19T09:18:09.623Z,1024.58
2019-03-19T09:19:09.610Z,1024.61
2019-03-19T09:20:09.702Z,1024.63
2019-03-19T09:21:09.592Z,1024.58
2019-03-19T09:22:09.592Z,1024.65
2019-03-19T09:23:09.572Z,1024.61
2019-03-19T09:24:09.563Z,1024.67
2019-03-19T09:25:09.550Z,1024.65
2019-03-19T09:26:09.575Z,1024.72
2019-03-19T09:27:09.550Z,1024.64
2019-03-19T09:28:09.514Z,1024.61
2019-03-19T09:29:16.740Z,1024.65
2019-03-19T09:30:10.494Z,1024.62
2019-03-19T09:31:09.521Z,1024.61
2019-03-19T09:32:09.492Z,1024.66
2019-03-19T09:33:09.467Z,1024.61
2019-03-19T09:34:09.450Z,1024.65
2019-03-19T09:35:09.448Z,1024.65
2019-03-19T09:36:09.438Z,1024.68
2019-03-19T09:37:09.442Z,1024.69
2019-03-19T09:38:09.410Z,1024.70
2019-03-19T09:39:09.397Z,1024.71
2019-03-19T09:40:09.402Z,1024.68
2019-03-19T09:41:09.376Z,1024.72
2019-03-19T09:42:09.386Z,1024.74
2019-03-19T09:43:09.354Z,1024.78
2019-03-19T09:44:09.356Z,1024.81
2019-03-19T09:45:09.335Z,1024.78
2019-03-19T09:46:09.324Z,1024.76
2019-03-19T09:47:09.364Z,1024.76
2019-03-19T09:48:09.303Z,1024.77
2019-03-19T09:49:09.299Z,1024.74
2019-03-19T09:50:09.281Z,1024.77
2019-03-19T09:51:09.272Z,1024.77
2019-03-19T09:52:09.259Z,1024.72
2019-03-19T09:53:09.269Z,1024.76
2019-03-19T09:54:09.251Z,1024.72
2019-03-19T09:55:09.227Z,1024.75
2019-03-19T09:56:09.216Z,1024.86
2019-03-19T09:57:09.207Z,1024.79
2019-03-19T09:58:09.304Z,1024.81
2019-03-19T09:59:09.189Z,1024.82
2019-03-19T10:00:09.178Z,1024.79
2019-03-19T10:01:09.162Z,1024.79
2019-03-19T10:02:09.153Z,1024.73
2019-03-19T10:03:09.152Z,1024.77
2019-03-19T10:04:09.149Z,1024.78
2019-03-19T10:05:09.128Z,1024.80
2019-03-19T10:06:14.326Z,1024.84
2019-03-19T10:07:10.106Z,1024.87
2019-03-19T10:08:09.100Z,1024.88
2019-03-19T10:09:09.184Z,1024.89
2019-03-19T10:10:09.069Z,1024.94
2019-03-19T10:11:09.055Z,1024.89
2019-03-19T10:12:09.046Z,1024.89
2019-03-19T10:13:09.045Z,1024.88
2019-03-19T10:14:09.022Z,1024.85
2019-03-19T10:15:09.035Z,1024.86
2019-03-19T10:16:09.005Z,1024.84
2019-03-19T10:17:09.011Z,1024.87
2019-03-19T10:18:08.981Z,1024.82
2019-03-19T10:19:08.978Z,1024.85
2019-03-19T10:20:08.977Z,1024.83
2019-03-19T10:21:08.947Z,1024.83
2019-03-19T10:22:08.946Z,1024.87
2019-03-19T10:23:08.926Z,1024.86
2019-03-19T10:24:08.916Z,1024.95
2019-03-19T10:25:08.925Z,1024.91
2019-03-19T10:26:08.905Z,1024.90
2019-03-19T10:27:08.889Z,1024.88
2019-03-19T10:28:08.873Z,1024.87
2019-03-19T10:29:08.860Z,1024.82
2019-03-19T10:30:08.880Z,1024.80
2019-03-19T10:31:08.855Z,1024.80
2019-03-19T10:32:08.832Z,1024.76
2019-03-19T10:33:08.820Z,1024.81
2019-03-19T10:34:08.807Z,1024.71
2019-03-19T10:35:08.809Z,1024.72
2019-03-19T10:36:08.804Z,1024.80
2019-03-19T10:37:08.783Z,1024.75
2019-03-19T10:38:08.765Z,1024.79
2019-03-19T10:39:09.166Z,1024.75
2019-03-19T10:40:08.755Z,1024.80
2019-03-19T10:41:08.779Z,1024.81
2019-03-19T10:42:08.722Z,1024.79
2019-03-19T10:43:08.716Z,1024.82
2019-03-19T10:44:08.727Z,1024.86
2019-03-19T10:45:08.690Z,1024.82
2019-03-19T10:46:08.682Z,1024.84
2019-03-19T10:47:08.694Z,1024.86
2019-03-19T10:48:08.659Z,1024.84
2019-03-19T10:49:08.669Z,1024.84
2019-03-19T10:50:08.634Z,1024.83
2019-03-19T10:51:08.626Z,1024.81
2019-03-19T10:52:08.634Z,1024.87
2019-03-19T10:53:08.613Z,1024.81
2019-03-19T10:54:08.595Z,1024.86
2019-03-19T10:55:08.584Z,1024.86
2019-03-19T10:56:08.573Z,1024.88
2019-03-19T10:57:08.579Z,1024.80
2019-03-19T10:58:11.259Z,1024.83
2019-03-19T10:59:08.538Z,1024.83
2019-03-19T11:00:08.531Z,1024.82
2019-03-19T11:01:08.519Z,1024.78
2019-03-19T11:02:08.563Z,1024.79
2019-03-19T11:03:08.532Z,1024.85
2019-03-19T11:04:08.486Z,1024.76
2019-03-19T11:05:08.471Z,1024.81
2019-03-19T11:06:08.462Z,1024.78
2019-03-19T11:07:08.461Z,1024.77
2019-03-19T11:08:08.462Z,1024.78
2019-03-19T11:09:08.443Z,1024.80
2019-03-19T11:10:08.420Z,1024.83
2019-03-19T11:11:08.418Z,1024.88
2019-03-19T11:12:08.400Z,1024.92
2019-03-19T11:13:08.489Z,1024.87
2019-03-19T11:14:08.384Z,1024.90
2019-03-19T11:15:08.368Z,1024.88
2019-03-19T11:16:08.371Z,1024.95
2019-03-19T11:17:08.349Z,1024.96
2019-03-19T11:18:08.333Z,1024.90
2019-03-19T11:19:08.343Z,1024.91
2019-03-19T11:20:08.332Z,1024.89
2019-03-19T11:21:08.300Z,1024.95
2019-03-19T11:22:08.295Z,1024.89
2019-03-19T11:23:08.281Z,1024.93
2019-03-19T11:24:08.296Z,1024.92
2019-03-19T11:25:08.281Z,1024.89
2019-03-19T11:26:08.250Z,1024.90
2019-03-19T11:27:08.238Z,1024.95
2019-03-19T11:28:08.226Z,1024.94
2019-03-19T11:29:08.216Z,1024.98
2019-03-19T11:30:08.228Z,1024.96
2019-03-19T11:31:08.194Z,1024.96
2019-03-19T11:32:08.195Z,1024.90
2019-03-19T11:33:08.181Z,1024.88
2019-03-19T11:34:08.177Z,1024.83
2019-03-19T11:35:08.171Z,1024.82
2019-03-19T11:36:08.165Z,1024.76
2019-03-19T11:37:08.133Z,1024.78
2019-03-19T11:38:08.127Z,1024.82
2019-03-19T11:39:08.110Z,1024.78
2019-03-19T11:40:08.135Z,1024.77
2019-03-19T11:41:08.100Z,1024.72
2019-03-19T11:42:08.074Z,1024.69
2019-03-19T11:43:08.079Z,1024.74
2019-03-19T11:44:08.060Z,1024.70
2019-03-19T11:45:08.062Z,1024.72
2019-03-19T11:46:08.053Z,1024.77
2019-03-19T11:47:08.025Z,1024.81
2019-03-19T11:48:08.011Z,1024.79
2019-03-19T11:49:08.018Z,1024.74
2019-03-19T11:50:08.009Z,1024.63
2019-03-19T11:51:07.982Z,1024.70
2019-03-19T11:52:07.968Z,1024.69
2019-03-19T11:53:07.957Z,1024.71
2019-03-19T11:54:07.955Z,1024.67
2019-03-19T11:55:07.964Z,1024.70
2019-03-19T11:56:07.931Z,1024.72
2019-03-19T11:57:07.965Z,1024.70
2019-03-19T11:58:07.902Z,1024.67
2019-03-19T11:59:07.899Z,1024.60
2019-03-19T12:00:11.433Z,1024.62
2019-03-19T12:01:07.899Z,1024.67
2019-03-19T12:02:07.860Z,1024.69
2019-03-19T12:03:15.403Z,1024.69
2019-03-19T12:04:08.888Z,1024.69
2019-03-19T12:05:07.840Z,1024.81